sensor_id;sensor_type;location;lat;lon;timestamp;pressure;altitude;pressure_sealevel;temperature;humidity
55410;BME280;41279;43.546;16.426;2022-11-20T00:00:47;54402.84;;;-146.77;91.73
55410;BME280;41279;43.546;16.426;2022-11-20T00:03:12;54214.56;;;-146.77;91.63
55410;BME280;41279;43.546;16.426;2022-11-20T00:05:38;54340.75;;;-146.77;98.29
55410;BME280;41279;43.546;16.426;2022-11-20T00:08:03;54527.03;;;-146.77;89.88
55410;BME280;41279;43.546;16.426;2022-11-20T00:10:29;54406.84;;;-146.77;100.00
55410;BME280;41279;43.546;16.426;2022-11-20T00:12:54;54398.84;;;-146.77;100.00
55410;BME280;41279;43.546;16.426;2022-11-20T00:15:20;54278.66;;;-146.77;100.00
55410;BME280;41279;43.546;16.426;2022-11-20T00:17:46;54535.03;;;-146.77;100.00
55410;BME280;41279;43.546;16.426;2022-11-20T00:20:11;54539.03;;;-146.77;99.71
55410;BME280;41279;43.546;16.426;2022-11-20T00:22:37;54042.31;;;-146.77;86.85
55410;BME280;41279;43.546;16.426;2022-11-20T00:25:02;54142.44;;;-146.77;84.05
55410;BME280;41279;43.546;16.426;2022-11-20T00:27:27;54094.38;;;-146.77;87.14
55410;BME280;41279;43.546;16.426;2022-11-20T00:29:53;53972.22;;;-146.77;91.33
55410;BME280;41279;43.546;16.426;2022-11-20T00:32:18;54302.69;;;-146.77;87.43
55410;BME280;41279;43.546;16.426;2022-11-20T00:34:44;53852.03;;;-146.77;82.95
55410;BME280;41279;43.546;16.426;2022-11-20T00:37:09;54000.25;;;-146.77;87.70
55410;BME280;41279;43.546;16.426;2022-11-20T00:39:34;53904.13;;;-146.77;92.98
55410;BME280;41279;43.546;16.426;2022-11-20T00:42:00;53986.22;;;-146.77;80.13
55410;BME280;41279;43.546;16.426;2022-11-20T00:44:25;54192.53;;;-146.77;95.37
55410;BME280;41279;43.546;16.426;2022-11-20T00:46:57;54364.78;;;-146.77;80.15
55410;BME280;41279;43.546;16.426;2022-11-20T00:49:22;53924.16;;;-146.77;83.73
55410;BME280;41279;43.546;16.426;2022-11-20T00:51:47;53791.97;;;-146.77;91.76
55410;BME280;41279;43.546;16.426;2022-11-20T00:54:13;53926.16;;;-146.77;97.54
55410;BME280;41279;43.546;16.426;2022-11-20T00:56:38;53647.75;;;-146.77;89.80
55410;BME280;41279;43.546;16.426;2022-11-20T00:59:03;53824.00;;;-146.77;93.42
55410;BME280;41279;43.546;16.426;2022-11-20T01:01:29;53940.16;;;-146.77;98.72
55410;BME280;41279;43.546;16.426;2022-11-20T01:04:01;54090.38;;;-146.77;98.27
55410;BME280;41279;43.546;16.426;2022-11-20T01:06:32;55027.84;;;-146.77;90.47
55410;BME280;41279;43.546;16.426;2022-11-20T01:09:00;54120.41;;;-146.77;88.16
55410;BME280;41279;43.546;16.426;2022-11-20T01:11:28;54248.59;;;-146.77;93.53
55410;BME280;41279;43.546;16.426;2022-11-20T01:13:54;54072.34;;;-146.77;93.76
55410;BME280;41279;43.546;16.426;2022-11-20T01:16:23;54480.97;;;-146.77;100.00
55410;BME280;41279;43.546;16.426;2022-11-20T01:18:51;54232.59;;;-146.77;100.00
55410;BME280;41279;43.546;16.426;2022-11-20T01:21:26;54180.50;;;-146.77;85.08
55410;BME280;41279;43.546;16.426;2022-11-20T01:23:52;54322.72;;;-146.77;82.59
55410;BME280;41279;43.546;16.426;2022-11-20T01:26:23;54346.75;;;-146.77;100.00
55410;BME280;41279;43.546;16.426;2022-11-20T01:28:49;54765.41;;;-146.77;100.00
55410;BME280;41279;43.546;16.426;2022-11-20T01:31:19;55420.50;;;-146.77;100.00
55410;BME280;41279;43.546;16.426;2022-11-20T01:33:46;54557.06;;;-146.77;93.64
55410;BME280;41279;43.546;16.426;2022-11-20T01:36:13;54997.78;;;-146.77;100.00
55410;BME280;41279;43.546;16.426;2022-11-20T01:38:39;54685.28;;;-146.77;100.00
55410;BME280;41279;43.546;16.426;2022-11-20T01:41:05;54244.59;;;-146.77;100.00
55410;BME280;41279;43.546;16.426;2022-11-20T01:43:31;54923.66;;;-146.77;100.00
55410;BME280;41279;43.546;16.426;2022-11-20T01:46:12;56566.72;;;-146.77;100.00
55410;BME280;41279;43.546;16.426;2022-11-20T01:48:44;55170.06;;;-146.77;100.00
55410;BME280;41279;43.546;16.426;2022-11-20T01:51:27;54322.72;;;-146.77;100.00
55410;BME280;41279;43.546;16.426;2022-11-20T01:53:56;55172.09;;;-146.77;100.00
55410;BME280;41279;43.546;16.426;2022-11-20T01:56:25;54835.53;;;-146.77;100.00
55410;BME280;41279;43.546;16.426;2022-11-20T01:58:54;56011.59;;;-146.77;100.00
55410;BME280;41279;43.546;16.426;2022-11-20T02:01:21;54392.81;;;-146.77;98.90
55410;BME280;41279;43.546;16.426;2022-11-20T02:03:47;55037.84;;;-146.77;100.00
55410;BME280;41279;43.546;16.426;2022-11-20T02:06:25;55548.75;;;-146.77;100.00
55410;BME280;41279;43.546;16.426;2022-11-20T02:08:54;55979.53;;;-146.77;100.00
55410;BME280;41279;43.546;16.426;2022-11-20T02:11:19;54615.16;;;-146.77;100.00
55410;BME280;41279;43.546;16.426;2022-11-20T02:13:45;56043.66;;;-146.77;100.00
55410;BME280;41279;43.546;16.426;2022-11-20T02:16:31;55204.13;;;-146.77;85.66
55410;BME280;41279;43.546;16.426;2022-11-20T02:19:00;54476.94;;;-146.77;89.05
55410;BME280;41279;43.546;16.426;2022-11-20T02:24:18;56023.63;;;-146.77;100.00
55410;BME280;41279;43.546;16.426;2022-11-20T02:26:51;54805.47;;;-146.77;100.00
55410;BME280;41279;43.546;16.426;2022-11-20T02:29:48;55386.47;;;-146.77;100.00
55410;BME280;41279;43.546;16.426;2022-11-20T02:34:47;54993.78;;;-146.77;100.00
55410;BME280;41279;43.546;16.426;2022-11-20T02:37:13;54775.41;;;-146.77;92.32
55410;BME280;41279;43.546;16.426;2022-11-20T02:39:39;56216.00;;;-146.77;100.00
55410;BME280;41279;43.546;16.426;2022-11-20T02:42:05;55809.22;;;-146.77;100.00
55410;BME280;41279;43.546;16.426;2022-11-20T02:44:30;56420.41;;;-146.77;100.00
55410;BME280;41279;43.546;16.426;2022-11-20T02:46:59;55246.22;;;-146.77;100.00
55410;BME280;41279;43.546;16.426;2022-11-20T02:49:24;54893.63;;;-146.77;100.00
55410;BME280;41279;43.546;16.426;2022-11-20T02:51:50;55851.31;;;-146.77;100.00
55410;BME280;41279;43.546;16.426;2022-11-20T02:54:16;55570.78;;;-146.77;100.00
55410;BME280;41279;43.546;16.426;2022-11-20T02:56:41;56041.66;;;-146.77;100.00
55410;BME280;41279;43.546;16.426;2022-11-20T02:59:07;54963.72;;;-146.77;100.00
55410;BME280;41279;43.546;16.426;2022-11-20T03:01:33;54525.03;;;-146.77;99.43
55410;BME280;41279;43.546;16.426;2022-11-20T03:03:58;54793.44;;;-146.77;100.00
55410;BME280;41279;43.546;16.426;2022-11-20T03:06:24;54597.13;;;-146.77;100.00
55410;BME280;41279;43.546;16.426;2022-11-20T03:08:49;55444.56;;;-146.77;100.00
55410;BME280;41279;43.546;16.426;2022-11-20T03:11:14;59666.31;;;-146.77;100.00
55410;BME280;41279;43.546;16.426;2022-11-20T03:13:40;58805.97;;;-146.77;100.00
55410;BME280;41279;43.546;16.426;2022-11-20T03:16:11;58300.66;;;-146.77;100.00
55410;BME280;41279;43.546;16.426;2022-11-20T03:18:37;59598.13;;;-146.77;100.00
55410;BME280;41279;43.546;16.426;2022-11-20T03:21:03;58497.16;;;-146.77;100.00
55410;BME280;41279;43.546;16.426;2022-11-20T03:23:30;61447.78;;;-146.77;100.00
55410;BME280;41279;43.546;16.426;2022-11-20T03:26:10;61939.44;;;-146.77;100.00
55410;BME280;41279;43.546;16.426;2022-11-20T03:28:36;60101.59;;;-146.77;100.00
55410;BME280;41279;43.546;16.426;2022-11-20T03:31:13;55398.47;;;-146.77;100.00
55410;BME280;41279;43.546;16.426;2022-11-20T03:33:40;55578.81;;;-146.77;100.00
55410;BME280;41279;43.546;16.426;2022-11-20T03:36:08;54723.34;;;-146.77;100.00
55410;BME280;41279;43.546;16.426;2022-11-20T03:38:34;55097.97;;;-146.77;100.00
55410;BME280;41279;43.546;16.426;2022-11-20T03:41:02;54901.63;;;-146.77;100.00
55410;BME280;41279;43.546;16.426;2022-11-20T03:43:28;55005.81;;;-146.77;100.00
55410;BME280;41279;43.546;16.426;2022-11-20T03:45:54;54957.72;;;-146.77;100.00
55410;BME280;41279;43.546;16.426;2022-11-20T03:48:20;54915.66;;;-146.77;100.00
55410;BME280;41279;43.546;16.426;2022-11-20T03:50:45;56326.22;;;-146.77;100.00
55410;BME280;41279;43.546;16.426;2022-11-20T03:53:13;54517.00;;;-146.77;100.00
55410;BME280;41279;43.546;16.426;2022-11-20T03:55:38;54545.06;;;-146.77;100.00
55410;BME280;41279;43.546;16.426;2022-11-20T03:58:03;54112.41;;;-146.77;89.32
55410;BME280;41279;43.546;16.426;2022-11-20T04:00:29;54737.38;;;-146.77;93.21
55410;BME280;41279;43.546;16.426;2022-11-20T04:02:58;54763.41;;;-146.77;100.00
55410;BME280;41279;43.546;16.426;2022-11-20T04:05:23;54310.69;;;-146.77;83.88
55410;BME280;41279;43.546;16.426;2022-11-20T04:07:49;54296.69;;;-146.77;80.87
55410;BME280;41279;43.546;16.426;2022-11-20T04:10:14;54266.63;;;-146.77;88.57
55410;BME280;41279;43.546;16.426;2022-11-20T04:12:39;54066.34;;;-146.77;96.96
55410;BME280;41279;43.546;16.426;2022-11-20T04:15:05;55073.91;;;-146.77;100.00
55410;BME280;41279;43.546;16.426;2022-11-20T04:17:30;54991.78;;;-146.77;89.64
55410;BME280;41279;43.546;16.426;2022-11-20T04:19:56;54647.22;;;-146.77;100.00
55410;BME280;41279;43.546;16.426;2022-11-20T04:22:21;54779.44;;;-146.77;100.00
55410;BME280;41279;43.546;16.426;2022-11-20T04:24:46;55095.94;;;-146.77;100.00
55410;BME280;41279;43.546;16.426;2022-11-20T04:27:12;54893.63;;;-146.77;100.00
55410;BME280;41279;43.546;16.426;2022-11-20T04:29:37;54907.63;;;-146.77;100.00
55410;BME280;41279;43.546;16.426;2022-11-20T04:32:02;54601.16;;;-146.77;82.78
55410;BME280;41279;43.546;16.426;2022-11-20T04:34:28;54414.84;;;-146.77;100.00
55410;BME280;41279;43.546;16.426;2022-11-20T04:36:53;55003.78;;;-146.77;100.00
55410;BME280;41279;43.546;16.426;2022-11-20T04:39:18;54807.47;;;-146.77;100.00
55410;BME280;41279;43.546;16.426;2022-11-20T04:41:44;54625.19;;;-146.77;100.00
55410;BME280;41279;43.546;16.426;2022-11-20T04:44:09;55021.81;;;-146.77;100.00
55410;BME280;41279;43.546;16.426;2022-11-20T04:46:39;54631.19;;;-146.77;100.00
55410;BME280;41279;43.546;16.426;2022-11-20T04:49:05;54529.03;;;-146.77;100.00
55410;BME280;41279;43.546;16.426;2022-11-20T04:51:31;54781.44;;;-146.77;100.00
55410;BME280;41279;43.546;16.426;2022-11-20T04:53:57;55116.00;;;-146.77;100.00
55410;BME280;41279;43.546;16.426;2022-11-20T04:56:22;55007.81;;;-146.77;100.00
55410;BME280;41279;43.546;16.426;2022-11-20T04:58:48;54250.63;;;-146.77;100.00
55410;BME280;41279;43.546;16.426;2022-11-20T05:01:17;54492.97;;;-146.77;100.00
55410;BME280;41279;43.546;16.426;2022-11-20T05:03:43;54531.03;;;-146.77;100.00
55410;BME280;41279;43.546;16.426;2022-11-20T05:06:11;55294.28;;;-146.77;100.00
55410;BME280;41279;43.546;16.426;2022-11-20T05:08:37;55532.72;;;-146.77;100.00
55410;BME280;41279;43.546;16.426;2022-11-20T05:11:05;55927.44;;;-146.77;100.00
55410;BME280;41279;43.546;16.426;2022-11-20T05:13:30;54869.56;;;-146.77;100.00
55410;BME280;41279;43.546;16.426;2022-11-20T05:16:04;54993.78;;;-146.77;100.00
55410;BME280;41279;43.546;16.426;2022-11-20T05:18:30;54833.53;;;-146.77;91.96
55410;BME280;41279;43.546;16.426;2022-11-20T05:20:56;54216.56;;;-146.77;100.00
55410;BME280;41279;43.546;16.426;2022-11-20T05:23:22;54290.66;;;-146.77;100.00
55410;BME280;41279;43.546;16.426;2022-11-20T05:25:47;54200.53;;;-146.77;100.00
55410;BME280;41279;43.546;16.426;2022-11-20T05:28:13;54268.63;;;-146.77;100.00
55410;BME280;41279;43.546;16.426;2022-11-20T05:30:39;53994.25;;;-146.77;100.00
55410;BME280;41279;43.546;16.426;2022-11-20T05:33:04;54342.75;;;-146.77;100.00
55410;BME280;41279;43.546;16.426;2022-11-20T05:35:29;54308.69;;;-146.77;100.00
55410;BME280;41279;43.546;16.426;2022-11-20T05:37:55;54272.66;;;-146.77;100.00
55410;BME280;41279;43.546;16.426;2022-11-20T05:40:20;53982.22;;;-146.77;81.62
55410;BME280;41279;43.546;16.426;2022-11-20T05:42:45;54226.56;;;-146.77;93.50
55410;BME280;41279;43.546;16.426;2022-11-20T05:45:10;54272.66;;;-146.77;100.00
55410;BME280;41279;43.546;16.426;2022-11-20T05:47:36;54785.44;;;-146.77;100.00
55410;BME280;41279;43.546;16.426;2022-11-20T05:50:01;54665.25;;;-146.77;100.00
55410;BME280;41279;43.546;16.426;2022-11-20T05:52:30;54601.16;;;-146.77;100.00
55410;BME280;41279;43.546;16.426;2022-11-20T05:54:56;54350.75;;;-146.77;100.00
55410;BME280;41279;43.546;16.426;2022-11-20T05:57:21;54190.53;;;-146.77;91.39
55410;BME280;41279;43.546;16.426;2022-11-20T05:59:46;54515.00;;;-146.77;80.65
55410;BME280;41279;43.546;16.426;2022-11-20T06:02:12;53830.00;;;-146.77;87.13
55410;BME280;41279;43.546;16.426;2022-11-20T06:04:37;53948.19;;;-146.77;98.59
55410;BME280;41279;43.546;16.426;2022-11-20T06:07:04;54422.88;;;-146.77;100.00
55410;BME280;41279;43.546;16.426;2022-11-20T06:09:30;54090.38;;;-146.77;100.00
55410;BME280;41279;43.546;16.426;2022-11-20T06:11:55;54492.97;;;-146.77;100.00
55410;BME280;41279;43.546;16.426;2022-11-20T06:14:21;54480.97;;;-146.77;100.00
55410;BME280;41279;43.546;16.426;2022-11-20T06:16:46;54332.72;;;-146.77;100.00
55410;BME280;41279;43.546;16.426;2022-11-20T06:19:11;53960.19;;;-146.77;100.00
55410;BME280;41279;43.546;16.426;2022-11-20T06:21:37;54845.53;;;-146.77;100.00
55410;BME280;41279;43.546;16.426;2022-11-20T06:24:02;54372.78;;;-146.77;100.00
55410;BME280;41279;43.546;16.426;2022-11-20T06:26:28;54048.31;;;-146.77;100.00
55410;BME280;41279;43.546;16.426;2022-11-20T06:28:54;54178.50;;;-146.77;94.06
55410;BME280;41279;43.546;16.426;2022-11-20T06:31:22;54202.53;;;-146.77;89.43
55410;BME280;41279;43.546;16.426;2022-11-20T06:33:49;53984.22;;;-146.77;88.42
55410;BME280;41279;43.546;16.426;2022-11-20T06:36:17;54070.34;;;-146.77;81.62
55410;BME280;41279;43.546;16.426;2022-11-20T06:38:42;53691.81;;;-146.77;78.34
55410;BME280;41279;43.546;16.426;2022-11-20T06:41:15;53471.53;;;-146.77;94.07
55410;BME280;41279;43.546;16.426;2022-11-20T06:43:41;53757.91;;;-146.77;75.79
55410;BME280;41279;43.546;16.426;2022-11-20T06:46:14;53795.97;;;-146.77;80.52
55410;BME280;41279;43.546;16.426;2022-11-20T06:48:40;54000.25;;;-146.77;80.01
55410;BME280;41279;43.546;16.426;2022-11-20T06:51:07;53677.81;;;-146.77;82.95
55410;BME280;41279;43.546;16.426;2022-11-20T06:53:33;53659.78;;;-146.77;85.69
55410;BME280;41279;43.546;16.426;2022-11-20T06:55:59;53731.88;;;-146.77;100.00
55410;BME280;41279;43.546;16.426;2022-11-20T06:58:33;53950.19;;;-146.77;100.00
55410;BME280;41279;43.546;16.426;2022-11-20T07:00:59;53866.06;;;-146.77;83.95
55410;BME280;41279;43.546;16.426;2022-11-20T07:03:33;53767.94;;;-146.77;94.43
55410;BME280;41279;43.546;16.426;2022-11-20T07:06:00;53639.75;;;-146.77;97.57
55410;BME280;41279;43.546;16.426;2022-11-20T07:08:26;53884.09;;;-146.77;98.67
55410;BME280;41279;43.546;16.426;2022-11-20T07:10:59;53783.94;;;-146.77;100.00
55410;BME280;41279;43.546;16.426;2022-11-20T07:13:32;53761.91;;;-146.77;98.39
55410;BME280;41279;43.546;16.426;2022-11-20T07:16:02;53791.97;;;-146.77;98.65
55410;BME280;41279;43.546;16.426;2022-11-20T07:18:28;53834.00;;;-146.77;92.35
55410;BME280;41279;43.546;16.426;2022-11-20T07:20:54;53653.78;;;-146.77;78.71
55410;BME280;41279;43.546;16.426;2022-11-20T07:23:19;53838.03;;;-146.77;83.86
55410;BME280;41279;43.546;16.426;2022-11-20T07:25:44;53579.69;;;-146.77;80.86
55410;BME280;41279;43.546;16.426;2022-11-20T07:28:10;53631.75;;;-146.77;81.26
55410;BME280;41279;43.546;16.426;2022-11-20T07:30:35;53623.72;;;-146.77;82.15
55410;BME280;41279;43.546;16.426;2022-11-20T07:33:01;53603.72;;;-146.77;87.63
55410;BME280;41279;43.546;16.426;2022-11-20T07:35:26;53779.94;;;-146.77;77.70
55410;BME280;41279;43.546;16.426;2022-11-20T07:37:51;53417.47;;;-146.77;73.73
55410;BME280;41279;43.546;16.426;2022-11-20T07:40:17;53641.75;;;-146.77;76.93
55410;BME280;41279;43.546;16.426;2022-11-20T07:42:53;53599.69;;;-146.77;86.02
55410;BME280;41279;43.546;16.426;2022-11-20T07:45:21;53487.56;;;-146.77;86.73
55410;BME280;41279;43.546;16.426;2022-11-20T07:47:46;53645.75;;;-146.77;100.00
55410;BME280;41279;43.546;16.426;2022-11-20T07:50:12;53487.56;;;-146.77;71.14
55410;BME280;41279;43.546;16.426;2022-11-20T07:52:37;53751.91;;;-146.77;68.72
55410;BME280;41279;43.546;16.426;2022-11-20T07:55:03;53445.50;;;-146.77;80.70
55410;BME280;41279;43.546;16.426;2022-11-20T07:57:28;53391.44;;;-146.77;89.75
55410;BME280;41279;43.546;16.426;2022-11-20T07:59:54;53459.53;;;-146.77;99.06
55410;BME280;41279;43.546;16.426;2022-11-20T08:02:19;53475.53;;;-146.77;93.61
55410;BME280;41279;43.546;16.426;2022-11-20T08:04:44;53405.44;;;-146.77;100.00
55410;BME280;41279;43.546;16.426;2022-11-20T08:07:10;53273.28;;;-146.77;92.55
55410;BME280;41279;43.546;16.426;2022-11-20T08:09:35;53315.34;;;-146.77;100.00
55410;BME280;41279;43.546;16.426;2022-11-20T08:12:00;53978.22;;;-146.77;83.94
55410;BME280;41279;43.546;16.426;2022-11-20T08:14:44;53834.00;;;-146.77;53.62
55410;BME280;41279;43.546;16.426;2022-11-20T08:17:09;53233.22;;;-146.77;78.74
55410;BME280;41279;43.546;16.426;2022-11-20T08:19:35;53305.31;;;-146.77;80.06
55410;BME280;41279;43.546;16.426;2022-11-20T08:22:00;54250.63;;;-146.77;61.98
55410;BME280;41279;43.546;16.426;2022-11-20T08:24:25;53603.72;;;-146.77;55.51
55410;BME280;41279;43.546;16.426;2022-11-20T08:26:51;53703.84;;;-146.77;51.78
55410;BME280;41279;43.546;16.426;2022-11-20T08:29:17;53081.06;;;-146.77;67.53
55410;BME280;41279;43.546;16.426;2022-11-20T08:31:42;53101.06;;;-146.77;68.94
55410;BME280;41279;43.546;16.426;2022-11-20T08:34:08;53119.09;;;-146.77;76.15
55410;BME280;41279;43.546;16.426;2022-11-20T08:36:33;53187.19;;;-146.77;74.97
55410;BME280;41279;43.546;16.426;2022-11-20T08:39:00;53567.66;;;-146.77;68.10
55410;BME280;41279;43.546;16.426;2022-11-20T08:41:25;53183.19;;;-146.77;69.20
55410;BME280;41279;43.546;16.426;2022-11-20T08:44:06;53133.13;;;-146.77;77.09
55410;BME280;41279;43.546;16.426;2022-11-20T08:46:41;53215.22;;;-146.77;76.18
55410;BME280;41279;43.546;16.426;2022-11-20T08:49:10;53231.22;;;-146.77;74.67
55410;BME280;41279;43.546;16.426;2022-11-20T08:51:36;53193.19;;;-146.77;75.44
55410;BME280;41279;43.546;16.426;2022-11-20T08:54:03;53619.72;;;-146.77;79.92
55410;BME280;41279;43.546;16.426;2022-11-20T08:56:28;53920.13;;;-146.77;69.43
55410;BME280;41279;43.546;16.426;2022-11-20T08:58:54;53239.25;;;-146.77;82.53
55410;BME280;41279;43.546;16.426;2022-11-20T09:01:20;53201.19;;;-146.77;87.38
55410;BME280;41279;43.546;16.426;2022-11-20T09:03:46;53281.28;;;-146.77;87.17
55410;BME280;41279;43.546;16.426;2022-11-20T09:06:12;53315.34;;;-146.77;86.68
55410;BME280;41279;43.546;16.426;2022-11-20T09:08:37;53868.06;;;-146.77;66.61
55410;BME280;41279;43.546;16.426;2022-11-20T09:11:03;53231.22;;;-146.77;86.04
55410;BME280;41279;43.546;16.426;2022-11-20T09:13:29;53497.56;;;-146.77;100.00
55410;BME280;41279;43.546;16.426;2022-11-20T09:15:56;53880.09;;;-146.77;100.00
55410;BME280;41279;43.546;16.426;2022-11-20T09:18:22;53807.97;;;-146.77;96.78
55410;BME280;41279;43.546;16.426;2022-11-20T09:20:48;53207.22;;;-146.77;93.22
55410;BME280;41279;43.546;16.426;2022-11-20T09:23:14;53363.41;;;-146.77;98.59
55410;BME280;41279;43.546;16.426;2022-11-20T09:25:40;53297.31;;;-146.77;95.55
55410;BME280;41279;43.546;16.426;2022-11-20T09:28:05;53249.25;;;-146.77;93.53
55410;BME280;41279;43.546;16.426;2022-11-20T09:30:30;53117.09;;;-146.77;87.60
55410;BME280;41279;43.546;16.426;2022-11-20T09:32:56;53113.09;;;-146.77;81.41
55410;BME280;41279;43.546;16.426;2022-11-20T09:35:21;53297.31;;;-146.77;95.81
55410;BME280;41279;43.546;16.426;2022-11-20T09:37:47;53239.25;;;-146.77;97.23
55410;BME280;41279;43.546;16.426;2022-11-20T09:40:24;53207.22;;;-146.77;98.63
55410;BME280;41279;43.546;16.426;2022-11-20T09:48:29;53383.41;;;-146.77;78.43
55410;BME280;41279;43.546;16.426;2022-11-20T09:54:06;53347.38;;;-146.77;68.83
55410;BME280;41279;43.546;16.426;2022-11-20T09:56:37;53661.78;;;-146.77;62.52
55410;BME280;41279;43.546;16.426;2022-11-20T09:59:06;53497.56;;;-146.77;68.42
55410;BME280;41279;43.546;16.426;2022-11-20T10:01:35;53097.06;;;-146.77;76.79
55410;BME280;41279;43.546;16.426;2022-11-20T10:04:10;52990.94;;;-146.77;76.01
55410;BME280;41279;43.546;16.426;2022-11-20T10:07:00;53325.34;;;-146.77;69.59
55410;BME280;41279;43.546;16.426;2022-11-20T10:09:35;53149.13;;;-146.77;72.40
55410;BME280;41279;43.546;16.426;2022-11-20T10:18:16;53235.25;;;-146.77;60.26
55410;BME280;41279;43.546;16.426;2022-11-20T10:23:51;53129.09;;;-146.77;61.96
55410;BME280;41279;43.546;16.426;2022-11-20T10:26:51;53037.00;;;-146.77;69.78
55410;BME280;41279;43.546;16.426;2022-11-20T10:29:32;53027.00;;;-146.77;67.48
55410;BME280;41279;43.546;16.426;2022-11-20T10:32:04;53085.06;;;-146.77;68.54
55410;BME280;41279;43.546;16.426;2022-11-20T10:34:48;53207.22;;;-146.77;62.66
55410;BME280;41279;43.546;16.426;2022-11-20T10:37:21;53251.25;;;-146.77;57.99
55410;BME280;41279;43.546;16.426;2022-11-20T10:39:58;53131.13;;;-146.77;64.75
55410;BME280;41279;43.546;16.426;2022-11-20T10:42:34;53014.97;;;-146.77;65.03
55410;BME280;41279;43.546;16.426;2022-11-20T10:45:16;53051.00;;;-146.77;69.08
55410;BME280;41279;43.546;16.426;2022-11-20T10:47:44;53259.28;;;-146.77;69.74
55410;BME280;41279;43.546;16.426;2022-11-20T10:50:13;53149.13;;;-146.77;59.91
55410;BME280;41279;43.546;16.426;2022-11-20T10:57:54;53067.03;;;-146.77;78.48
55410;BME280;41279;43.546;16.426;2022-11-20T11:00:23;53227.22;;;-146.77;67.04
55410;BME280;41279;43.546;16.426;2022-11-20T11:02:53;53079.06;;;-146.77;75.94
55410;BME280;41279;43.546;16.426;2022-11-20T11:07:46;53219.22;;;-146.77;96.42
55410;BME280;41279;43.546;16.426;2022-11-20T11:10:16;53203.19;;;-146.77;100.00
55410;BME280;41279;43.546;16.426;2022-11-20T11:12:47;53814.00;;;-146.77;100.00
55410;BME280;41279;43.546;16.426;2022-11-20T11:17:50;54338.75;;;-146.77;100.00
55410;BME280;41279;43.546;16.426;2022-11-20T11:20:19;54326.72;;;-146.77;100.00
55410;BME280;41279;43.546;16.426;2022-11-20T11:22:54;53597.69;;;-146.77;100.00
55410;BME280;41279;43.546;16.426;2022-11-20T11:27:51;53395.44;;;-146.77;100.00
55410;BME280;41279;43.546;16.426;2022-11-20T11:30:19;53387.44;;;-146.77;100.00
55410;BME280;41279;43.546;16.426;2022-11-20T11:32:45;53471.53;;;-146.77;100.00
55410;BME280;41279;43.546;16.426;2022-11-20T11:35:22;53253.25;;;-146.77;100.00
55410;BME280;41279;43.546;16.426;2022-11-20T11:37:49;53265.28;;;-146.77;100.00
55410;BME280;41279;43.546;16.426;2022-11-20T11:40:17;53209.22;;;-146.77;100.00
55410;BME280;41279;43.546;16.426;2022-11-20T11:42:44;53205.19;;;-146.77;100.00
55410;BME280;41279;43.546;16.426;2022-11-20T11:45:14;53147.13;;;-146.77;100.00
55410;BME280;41279;43.546;16.426;2022-11-20T11:50:25;53253.25;;;-146.77;94.92
55410;BME280;41279;43.546;16.426;2022-11-20T11:58:27;53189.19;;;-146.77;95.26
55410;BME280;41279;43.546;16.426;2022-11-20T12:01:00;53113.09;;;-146.77;100.00
55410;BME280;41279;43.546;16.426;2022-11-20T12:03:36;53155.13;;;-146.77;100.00
55410;BME280;41279;43.546;16.426;2022-11-20T12:06:11;53227.22;;;-146.77;100.00
55410;BME280;41279;43.546;16.426;2022-11-20T12:08:59;53095.06;;;-146.77;95.15
55410;BME280;41279;43.546;16.426;2022-11-20T12:11:46;53101.06;;;-146.77;99.29
55410;BME280;41279;43.546;16.426;2022-11-20T12:14:19;53209.22;;;-146.77;100.00
55410;BME280;41279;43.546;16.426;2022-11-20T12:16:49;53249.25;;;-146.77;100.00
55410;BME280;41279;43.546;16.426;2022-11-20T12:19:15;53139.13;;;-146.77;95.54
55410;BME280;41279;43.546;16.426;2022-11-20T12:27:08;53123.09;;;-146.77;95.22
55410;BME280;41279;43.546;16.426;2022-11-20T12:37:46;53113.09;;;-146.77;94.85
55410;BME280;41279;43.546;16.426;2022-11-20T12:43:06;53197.19;;;-146.77;95.30
55410;BME280;41279;43.546;16.426;2022-11-20T12:48:41;53191.19;;;-146.77;90.10
55410;BME280;41279;43.546;16.426;2022-11-20T12:51:24;53103.06;;;-146.77;92.99
55410;BME280;41279;43.546;16.426;2022-11-20T13:03:05;53211.22;;;-146.77;88.03
55410;BME280;41279;43.546;16.426;2022-11-20T13:08:36;53089.06;;;-146.77;86.76
55410;BME280;41279;43.546;16.426;2022-11-20T13:16:38;53323.34;;;-146.77;52.37
55410;BME280;41279;43.546;16.426;2022-11-20T13:19:12;53261.28;;;-146.77;51.22
55410;BME280;41279;43.546;16.426;2022-11-20T13:21:43;53193.19;;;-146.77;50.32
55410;BME280;41279;43.546;16.426;2022-11-20T13:27:00;53079.06;;;-146.77;52.79
55410;BME280;41279;43.546;16.426;2022-11-20T13:29:26;53275.28;;;-146.77;50.45
55410;BME280;41279;43.546;16.426;2022-11-20T13:32:20;53004.97;;;-146.77;58.53
55410;BME280;41279;43.546;16.426;2022-11-20T13:34:56;52934.88;;;-146.77;62.85
55410;BME280;41279;43.546;16.426;2022-11-20T13:37:30;52910.84;;;-146.77;61.03
55410;BME280;41279;43.546;16.426;2022-11-20T13:42:39;53045.00;;;-146.77;55.93
55410;BME280;41279;43.546;16.426;2022-11-20T13:45:31;53018.97;;;-146.77;58.48
55410;BME280;41279;43.546;16.426;2022-11-20T13:48:04;53071.03;;;-146.77;58.16
55410;BME280;41279;43.546;16.426;2022-11-20T13:53:14;53020.97;;;-146.77;58.51
55410;BME280;41279;43.546;16.426;2022-11-20T13:55:54;52954.91;;;-146.77;62.68
55410;BME280;41279;43.546;16.426;2022-11-20T14:01:21;53049.00;;;-146.77;58.76
55410;BME280;41279;43.546;16.426;2022-11-20T14:03:48;53049.00;;;-146.77;60.22